sensor_id;sensor_type;location;lat;lon;timestamp;temperature;humidity
75685;HTU21D;64298;46.050;38.164;2023-09-19T00:00:49;18.49;57.32
75685;HTU21D;64298;46.050;38.164;2023-09-19T00:03:15;18.47;57.34
75685;HTU21D;64298;46.050;38.164;2023-09-19T00:05:41;18.46;57.42
75685;HTU21D;64298;46.050;38.164;2023-09-19T00:08:10;18.44;57.43
75685;HTU21D;64298;46.050;38.164;2023-09-19T00:10:36;18.42;57.46
75685;HTU21D;64298;46.050;38.164;2023-09-19T00:13:03;18.42;57.48
75685;HTU21D;64298;46.050;38.164;2023-09-19T00:15:40;18.40;57.51
75685;HTU21D;64298;46.050;38.164;2023-09-19T00:18:25;18.40;57.56
75685;HTU21D;64298;46.050;38.164;2023-09-19T00:21:00;18.38;57.69
75685;HTU21D;64298;46.050;38.164;2023-09-19T00:23:27;18.37;57.67
75685;HTU21D;64298;46.050;38.164;2023-09-19T00:25:53;18.35;57.70
75685;HTU21D;64298;46.050;38.164;2023-09-19T00:28:23;18.35;57.74
75685;HTU21D;64298;46.050;38.164;2023-09-19T00:30:49;18.32;57.78
75685;HTU21D;64298;46.050;38.164;2023-09-19T00:33:20;18.30;57.80
75685;HTU21D;64298;46.050;38.164;2023-09-19T00:35:53;18.28;57.83
75685;HTU21D;64298;46.050;38.164;2023-09-19T00:38:20;18.27;57.83
75685;HTU21D;64298;46.050;38.164;2023-09-19T00:40:49;18.27;57.87
75685;HTU21D;64298;46.050;38.164;2023-09-19T00:43:22;18.25;57.92
75685;HTU21D;64298;46.050;38.164;2023-09-19T00:45:51;18.24;57.90
75685;HTU21D;64298;46.050;38.164;2023-09-19T00:48:22;18.23;57.92
75685;HTU21D;64298;46.050;38.164;2023-09-19T00:50:49;18.23;57.92
75685;HTU21D;64298;46.050;38.164;2023-09-19T00:53:20;18.21;57.94
75685;HTU21D;64298;46.050;38.164;2023-09-19T00:55:47;18.19;57.96
75685;HTU21D;64298;46.050;38.164;2023-09-19T00:58:14;18.17;57.98
75685;HTU21D;64298;46.050;38.164;2023-09-19T01:00:42;18.14;58.00
75685;HTU21D;64298;46.050;38.164;2023-09-19T01:03:10;18.12;58.02
75685;HTU21D;64298;46.050;38.164;2023-09-19T01:05:40;18.09;58.07
75685;HTU21D;64298;46.050;38.164;2023-09-19T01:08:06;18.09;58.12
75685;HTU21D;64298;46.050;38.164;2023-09-19T01:11:05;18.05;58.23
75685;HTU21D;64298;46.050;38.164;2023-09-19T01:21:55;17.98;58.33
75685;HTU21D;64298;46.050;38.164;2023-09-19T01:30:08;17.91;58.57
75685;HTU21D;64298;46.050;38.164;2023-09-19T01:32:35;17.88;58.63
75685;HTU21D;64298;46.050;38.164;2023-09-19T01:35:03;17.87;58.68
75685;HTU21D;64298;46.050;38.164;2023-09-19T01:37:30;17.87;58.70
75685;HTU21D;64298;46.050;38.164;2023-09-19T01:40:06;17.85;58.80
75685;HTU21D;64298;46.050;38.164;2023-09-19T01:45:48;17.84;58.88
75685;HTU21D;64298;46.050;38.164;2023-09-19T01:48:29;17.82;58.90
75685;HTU21D;64298;46.050;38.164;2023-09-19T01:51:05;17.82;58.86
75685;HTU21D;64298;46.050;38.164;2023-09-19T01:53:43;17.79;58.93
75685;HTU21D;64298;46.050;38.164;2023-09-19T01:56:19;17.78;58.97
75685;HTU21D;64298;46.050;38.164;2023-09-19T01:58:50;17.77;59.04
75685;HTU21D;64298;46.050;38.164;2023-09-19T02:01:19;17.75;59.09
75685;HTU21D;64298;46.050;38.164;2023-09-19T02:03:47;17.73;59.18
75685;HTU21D;64298;46.050;38.164;2023-09-19T02:06:15;17.74;59.20
75685;HTU21D;64298;46.050;38.164;2023-09-19T02:08:41;17.73;59.27
75685;HTU21D;64298;46.050;38.164;2023-09-19T02:11:07;17.72;59.32
75685;HTU21D;64298;46.050;38.164;2023-09-19T02:13:33;17.70;59.37
75685;HTU21D;64298;46.050;38.164;2023-09-19T02:16:00;17.70;59.44
75685;HTU21D;64298;46.050;38.164;2023-09-19T02:18:44;17.68;59.52
75685;HTU21D;64298;46.050;38.164;2023-09-19T02:21:10;17.68;59.57
75685;HTU21D;64298;46.050;38.164;2023-09-19T02:23:37;17.68;59.57
75685;HTU21D;64298;46.050;38.164;2023-09-19T02:26:04;17.65;59.66
75685;HTU21D;64298;46.050;38.164;2023-09-19T02:28:30;17.62;59.77
75685;HTU21D;64298;46.050;38.164;2023-09-19T02:30:58;17.61;59.83
75685;HTU21D;64298;46.050;38.164;2023-09-19T02:33:24;17.60;59.97
75685;HTU21D;64298;46.050;38.164;2023-09-19T02:35:59;17.59;60.18
75685;HTU21D;64298;46.050;38.164;2023-09-19T02:38:27;17.59;60.12
75685;HTU21D;64298;46.050;38.164;2023-09-19T02:40:53;17.56;60.13
75685;HTU21D;64298;46.050;38.164;2023-09-19T02:43:21;17.56;60.22
75685;HTU21D;64298;46.050;38.164;2023-09-19T02:45:48;17.55;60.22
75685;HTU21D;64298;46.050;38.164;2023-09-19T02:48:19;17.55;60.35
75685;HTU21D;64298;46.050;38.164;2023-09-19T02:50:49;17.53;60.37
75685;HTU21D;64298;46.050;38.164;2023-09-19T02:53:15;17.52;60.40
75685;HTU21D;64298;46.050;38.164;2023-09-19T02:55:41;17.50;60.47
75685;HTU21D;64298;46.050;38.164;2023-09-19T02:58:08;17.49;60.56
75685;HTU21D;64298;46.050;38.164;2023-09-19T03:00:37;17.49;60.57
75685;HTU21D;64298;46.050;38.164;2023-09-19T03:03:04;17.47;60.60
75685;HTU21D;64298;46.050;38.164;2023-09-19T03:05:32;17.48;60.64
75685;HTU21D;64298;46.050;38.164;2023-09-19T03:07:59;17.47;60.75
75685;HTU21D;64298;46.050;38.164;2023-09-19T03:10:27;17.44;60.84
75685;HTU21D;64298;46.050;38.164;2023-09-19T03:12:57;17.41;60.91
75685;HTU21D;64298;46.050;38.164;2023-09-19T03:15:25;17.40;60.97
75685;HTU21D;64298;46.050;38.164;2023-09-19T03:17:52;17.38;60.96
75685;HTU21D;64298;46.050;38.164;2023-09-19T03:20:23;17.38;61.01
75685;HTU21D;64298;46.050;38.164;2023-09-19T03:22:51;17.37;61.02
75685;HTU21D;64298;46.050;38.164;2023-09-19T03:25:17;17.35;61.06
75685;HTU21D;64298;46.050;38.164;2023-09-19T03:27:47;17.35;61.10
75685;HTU21D;64298;46.050;38.164;2023-09-19T03:30:14;17.33;61.27
75685;HTU21D;64298;46.050;38.164;2023-09-19T03:32:48;17.31;61.30
75685;HTU21D;64298;46.050;38.164;2023-09-19T03:35:17;17.31;61.31
75685;HTU21D;64298;46.050;38.164;2023-09-19T03:37:43;17.30;61.35
75685;HTU21D;64298;46.050;38.164;2023-09-19T03:40:10;17.29;61.40
75685;HTU21D;64298;46.050;38.164;2023-09-19T03:42:41;17.30;61.41
75685;HTU21D;64298;46.050;38.164;2023-09-19T03:45:10;17.30;61.46
75685;HTU21D;64298;46.050;38.164;2023-09-19T03:47:41;17.28;61.59
75685;HTU21D;64298;46.050;38.164;2023-09-19T03:50:09;17.28;61.60
75685;HTU21D;64298;46.050;38.164;2023-09-19T03:52:41;17.28;61.51
75685;HTU21D;64298;46.050;38.164;2023-09-19T03:55:08;17.31;61.50
75685;HTU21D;64298;46.050;38.164;2023-09-19T03:57:37;17.30;61.50
75685;HTU21D;64298;46.050;38.164;2023-09-19T04:00:03;17.33;61.43
75685;HTU21D;64298;46.050;38.164;2023-09-19T04:02:58;17.35;61.50
75685;HTU21D;64298;46.050;38.164;2023-09-19T04:05:26;17.37;61.39
75685;HTU21D;64298;46.050;38.164;2023-09-19T04:07:52;17.39;61.40
75685;HTU21D;64298;46.050;38.164;2023-09-19T04:10:19;17.43;61.34
75685;HTU21D;64298;46.050;38.164;2023-09-19T04:12:53;17.44;61.35
75685;HTU21D;64298;46.050;38.164;2023-09-19T04:15:19;17.46;61.32
75685;HTU21D;64298;46.050;38.164;2023-09-19T04:17:49;17.49;61.33
75685;HTU21D;64298;46.050;38.164;2023-09-19T04:20:19;17.53;61.35
75685;HTU21D;64298;46.050;38.164;2023-09-19T04:22:51;17.56;61.31
75685;HTU21D;64298;46.050;38.164;2023-09-19T04:25:17;17.56;61.32
75685;HTU21D;64298;46.050;38.164;2023-09-19T04:27:44;17.62;61.25
75685;HTU21D;64298;46.050;38.164;2023-09-19T04:30:10;17.66;61.37
75685;HTU21D;64298;46.050;38.164;2023-09-19T04:32:40;17.69;61.34
75685;HTU21D;64298;46.050;38.164;2023-09-19T04:35:07;17.73;61.30
75685;HTU21D;64298;46.050;38.164;2023-09-19T04:37:40;17.78;61.14
75685;HTU21D;64298;46.050;38.164;2023-09-19T04:40:08;17.79;61.22
75685;HTU21D;64298;46.050;38.164;2023-09-19T04:42:43;17.81;61.34
75685;HTU21D;64298;46.050;38.164;2023-09-19T04:45:10;17.88;61.31
75685;HTU21D;64298;46.050;38.164;2023-09-19T04:47:37;17.90;61.31
75685;HTU21D;64298;46.050;38.164;2023-09-19T04:50:06;17.96;61.28
75685;HTU21D;64298;46.050;38.164;2023-09-19T04:52:33;18.00;61.18
75685;HTU21D;64298;46.050;38.164;2023-09-19T04:54:59;18.07;61.15
75685;HTU21D;64298;46.050;38.164;2023-09-19T04:57:25;18.15;61.06
75685;HTU21D;64298;46.050;38.164;2023-09-19T04:59:51;18.21;61.04
75685;HTU21D;64298;46.050;38.164;2023-09-19T05:02:17;18.28;60.92
75685;HTU21D;64298;46.050;38.164;2023-09-19T05:04:43;18.36;60.99
75685;HTU21D;64298;46.050;38.164;2023-09-19T05:07:09;18.43;60.87
75685;HTU21D;64298;46.050;38.164;2023-09-19T05:09:36;18.52;60.69
75685;HTU21D;64298;46.050;38.164;2023-09-19T05:12:03;18.59;60.54
75685;HTU21D;64298;46.050;38.164;2023-09-19T05:14:29;18.67;60.36
75685;HTU21D;64298;46.050;38.164;2023-09-19T05:16:55;18.76;60.33
75685;HTU21D;64298;46.050;38.164;2023-09-19T05:19:21;18.84;60.12
75685;HTU21D;64298;46.050;38.164;2023-09-19T05:21:47;18.93;59.99
75685;HTU21D;64298;46.050;38.164;2023-09-19T05:24:13;18.99;59.93
75685;HTU21D;64298;46.050;38.164;2023-09-19T05:26:40;19.09;59.77
75685;HTU21D;64298;46.050;38.164;2023-09-19T05:29:24;19.20;59.54
75685;HTU21D;64298;46.050;38.164;2023-09-19T05:31:50;19.27;59.38
75685;HTU21D;64298;46.050;38.164;2023-09-19T05:34:16;19.37;59.19
75685;HTU21D;64298;46.050;38.164;2023-09-19T05:36:42;19.46;58.99
75685;HTU21D;64298;46.050;38.164;2023-09-19T05:39:08;19.54;58.82
75685;HTU21D;64298;46.050;38.164;2023-09-19T05:41:35;19.62;58.68
75685;HTU21D;64298;46.050;38.164;2023-09-19T05:44:05;19.73;58.52
75685;HTU21D;64298;46.050;38.164;2023-09-19T05:46:32;19.84;58.35
75685;HTU21D;64298;46.050;38.164;2023-09-19T05:48:58;19.92;58.17
75685;HTU21D;64298;46.050;38.164;2023-09-19T05:51:24;20.06;57.97
75685;HTU21D;64298;46.050;38.164;2023-09-19T05:53:54;20.16;57.77
75685;HTU21D;64298;46.050;38.164;2023-09-19T05:56:20;20.26;57.51
75685;HTU21D;64298;46.050;38.164;2023-09-19T05:58:46;20.35;57.40
75685;HTU21D;64298;46.050;38.164;2023-09-19T06:01:12;20.47;57.24
75685;HTU21D;64298;46.050;38.164;2023-09-19T06:03:38;20.57;56.91
75685;HTU21D;64298;46.050;38.164;2023-09-19T06:06:05;20.70;56.68
75685;HTU21D;64298;46.050;38.164;2023-09-19T06:08:32;20.80;56.35
75685;HTU21D;64298;46.050;38.164;2023-09-19T06:10:59;20.89;56.00
75685;HTU21D;64298;46.050;38.164;2023-09-19T06:13:28;20.99;55.75
